createdAt,value
2022-12-16T00:01:31.021Z,55.10
2022-12-16T00:06:34.159Z,51.20
2022-12-16T00:11:36.157Z,49.20
2022-12-16T00:16:42.461Z,52.40
2022-12-16T00:21:44.260Z,46.80
2022-12-16T00:26:45.994Z,47.80
2022-12-16T00:31:48.257Z,47.80
2022-12-16T00:36:50.160Z,43.50
2022-12-16T00:41:52.427Z,49.40
2022-12-16T00:51:56.854Z,46.90
2022-12-16T01:02:00.340Z,42.30
2022-12-16T01:07:03.136Z,45.20
2022-12-16T01:12:06.055Z,32.40
2022-12-16T01:17:07.799Z,44.80
2022-12-16T01:27:11.640Z,43.10
2022-12-16T01:32:13.977Z,40.90
2022-12-16T01:37:15.883Z,40.90
2022-12-16T01:42:20.655Z,33.00
2022-12-16T01:47:27.313Z,37.60
2022-12-16T01:52:37.529Z,38.00
2022-12-16T01:57:48.162Z,37.30
2022-12-16T02:02:51.523Z,37.10
2022-12-16T02:08:04.736Z,37.40
2022-12-16T02:13:12.353Z,36.60
2022-12-16T02:18:29.678Z,33.70
2022-12-16T02:23:56.171Z,41.30
2022-12-16T02:29:24.655Z,41.30
2022-12-16T02:34:49.999Z,41.30
2022-12-16T02:40:00.462Z,41.30
2022-12-16T02:45:13.284Z,38.10
2022-12-16T02:50:46.915Z,42.30
2022-12-16T02:56:13.723Z,39.80
2022-12-16T03:01:43.755Z,41.20
2022-12-16T03:06:50.168Z,40.90
2022-12-16T03:11:54.651Z,41.20
2022-12-16T03:16:57.371Z,40.10
2022-12-16T03:22:13.984Z,39.40
2022-12-16T03:27:25.046Z,40.50
2022-12-16T03:32:39.093Z,36.90
2022-12-16T03:37:42.989Z,37.70
2022-12-16T03:42:45.242Z,39.70
2022-12-16T03:47:53.706Z,40.60
2022-12-16T03:52:56.273Z,38.20
2022-12-16T03:57:58.233Z,38.90
2022-12-16T04:03:00.321Z,35.40
2022-12-16T04:08:02.567Z,34.50
2022-12-16T04:13:23.122Z,35.40
2022-12-16T04:18:43.632Z,37.30
2022-12-16T04:24:13.800Z,38.20
2022-12-16T04:29:15.555Z,39.80
2022-12-16T04:34:26.085Z,45.00
2022-12-16T04:39:46.319Z,43.10
2022-12-16T04:45:06.851Z,43.90
2022-12-16T04:50:27.856Z,42.10
2022-12-16T04:55:48.516Z,42.10
2022-12-16T05:01:09.666Z,46.30
2022-12-16T05:06:50.477Z,44.60
2022-12-16T05:12:11.857Z,47.10
2022-12-16T05:17:31.999Z,41.30
2022-12-16T05:22:52.546Z,49.10
2022-12-16T05:28:14.218Z,43.90
2022-12-16T05:33:35.134Z,41.10
2022-12-16T05:38:55.622Z,50.00
2022-12-16T05:44:16.107Z,55.00
2022-12-16T05:49:36.623Z,56.80
2022-12-16T05:54:56.863Z,51.80
2022-12-16T06:00:17.339Z,45.30
2022-12-16T06:05:38.055Z,47.80
2022-12-16T06:10:58.514Z,55.70
2022-12-16T06:16:19.124Z,51.20
2022-12-16T06:21:39.455Z,47.90
2022-12-16T06:27:00.033Z,48.00
2022-12-16T06:32:20.492Z,45.00
2022-12-16T06:37:40.989Z,44.00
2022-12-16T06:43:02.025Z,44.70
2022-12-16T06:48:22.618Z,48.70
2022-12-16T06:53:43.228Z,47.60
2022-12-16T06:59:03.870Z,45.30
2022-12-16T07:04:24.198Z,48.90
2022-12-16T07:09:44.703Z,58.80
2022-12-16T07:15:05.157Z,50.20
2022-12-16T07:20:26.219Z,46.40
2022-12-16T07:25:46.536Z,47.90
2022-12-16T07:31:06.976Z,49.10
2022-12-16T07:36:31.621Z,51.50
2022-12-16T07:41:56.577Z,48.90
2022-12-16T07:47:16.999Z,52.50
2022-12-16T07:52:37.528Z,54.10
2022-12-16T07:57:58.131Z,54.60
2022-12-16T08:03:18.685Z,60.00
2022-12-16T08:08:39.291Z,57.70
2022-12-16T08:13:59.764Z,52.20
2022-12-16T08:19:20.395Z,59.90
2022-12-16T08:24:40.880Z,73.30
2022-12-16T08:30:01.389Z,62.50
2022-12-16T08:35:22.667Z,52.50
2022-12-16T08:40:42.921Z,54.30
2022-12-16T08:46:03.618Z,57.30
2022-12-16T08:51:25.640Z,54.40
2022-12-16T08:56:46.258Z,64.50
2022-12-16T09:02:06.662Z,47.40
2022-12-16T09:07:27.042Z,42.50
2022-12-16T09:12:47.341Z,52.00
2022-12-16T09:18:25.135Z,52.10
2022-12-16T09:23:45.606Z,51.30
2022-12-16T09:29:06.127Z,46.50
2022-12-16T09:34:26.709Z,50.30
2022-12-16T09:39:47.232Z,49.60
2022-12-16T09:45:36.774Z,44.10
2022-12-16T09:51:00.359Z,45.80
2022-12-16T09:56:42.372Z,42.30
2022-12-16T10:02:03.336Z,37.90
2022-12-16T10:07:32.251Z,29.10
2022-12-16T10:13:15.444Z,49.70
2022-12-16T10:19:10.047Z,40.80
2022-12-16T10:24:58.858Z,38.10
2022-12-16T10:30:21.894Z,39.40
2022-12-16T10:35:47.972Z,41.60
2022-12-16T10:41:09.186Z,34.90
2022-12-16T10:46:37.660Z,39.30
2022-12-16T10:51:58.240Z,39.40
2022-12-16T10:58:13.401Z,45.00
2022-12-16T11:03:39.000Z,44.20
2022-12-16T11:08:59.883Z,43.30
2022-12-16T11:14:32.764Z,44.10
2022-12-16T11:19:53.253Z,41.10
2022-12-16T11:25:43.349Z,36.70
2022-12-16T11:31:12.548Z,41.20
2022-12-16T11:36:39.079Z,39.50
2022-12-16T11:42:12.101Z,39.20
2022-12-16T11:47:53.556Z,38.20
2022-12-16T11:53:16.080Z,36.20
2022-12-16T11:58:50.088Z,34.00
2022-12-16T12:04:11.496Z,36.80
2022-12-16T12:09:33.856Z,33.80
2022-12-16T12:15:01.928Z,34.70
2022-12-16T12:20:47.717Z,36.80
2022-12-16T12:26:42.826Z,36.00
2022-12-16T12:32:06.283Z,41.00
2022-12-16T12:37:47.051Z,39.90
2022-12-16T12:43:14.457Z,42.00
2022-12-16T12:48:43.291Z,39.80
2022-12-16T12:54:19.157Z,44.00
2022-12-16T13:00:01.738Z,38.20
2022-12-16T13:05:24.758Z,43.30
2022-12-16T13:10:53.363Z,41.10
2022-12-16T13:16:13.861Z,39.90
2022-12-16T13:21:57.030Z,43.50
2022-12-16T13:27:21.727Z,43.30
2022-12-16T13:32:46.466Z,45.30
2022-12-16T13:38:37.193Z,46.00
2022-12-16T13:44:11.503Z,46.30
2022-12-16T13:50:12.012Z,45.50
2022-12-16T13:55:37.431Z,49.60
2022-12-16T14:01:00.625Z,51.40
2022-12-16T14:06:25.047Z,52.80
2022-12-16T14:12:07.793Z,52.50
2022-12-16T14:17:40.009Z,54.90
2022-12-16T14:23:55.747Z,59.50
2022-12-16T14:29:16.275Z,55.80
2022-12-16T14:34:40.244Z,58.10
2022-12-16T14:40:00.762Z,59.20
2022-12-16T14:45:21.258Z,54.40
2022-12-16T14:50:48.115Z,62.30
2022-12-16T14:56:08.851Z,58.20
2022-12-16T15:01:43.390Z,54.00
2022-12-16T15:07:08.791Z,51.30
2022-12-16T15:12:34.099Z,55.70
2022-12-16T15:18:04.195Z,67.70
2022-12-16T15:23:35.227Z,59.80
2022-12-16T15:29:03.660Z,61.60
2022-12-16T15:35:07.110Z,64.60
2022-12-16T15:40:55.517Z,63.80
2022-12-16T15:46:16.378Z,65.60
2022-12-16T15:51:49.444Z,63.10
2022-12-16T15:57:09.823Z,58.00
2022-12-16T16:02:45.638Z,49.60
2022-12-16T16:08:06.361Z,60.40
2022-12-16T16:13:28.451Z,54.40
2022-12-16T16:24:08.926Z,53.40
2022-12-16T16:29:31.786Z,53.10
2022-12-16T16:34:52.278Z,57.40
2022-12-16T16:40:12.702Z,55.50
2022-12-16T16:45:33.299Z,53.50
2022-12-16T16:50:53.741Z,60.10
2022-12-16T16:56:19.834Z,59.70
2022-12-16T17:01:40.654Z,62.80
2022-12-16T17:07:00.840Z,59.40
2022-12-16T17:12:33.293Z,54.60
2022-12-16T17:17:53.771Z,50.90
2022-12-16T17:23:15.215Z,59.80
2022-12-16T17:28:35.551Z,51.30
2022-12-16T17:33:56.182Z,52.30
2022-12-16T17:39:16.695Z,47.70
2022-12-16T17:44:37.756Z,50.30
2022-12-16T17:49:58.203Z,53.70
2022-12-16T17:55:19.094Z,56.30
2022-12-16T18:00:39.264Z,56.40
2022-12-16T18:05:59.722Z,55.50
2022-12-16T18:11:20.150Z,57.70
2022-12-16T18:16:40.783Z,57.80
2022-12-16T18:22:02.568Z,52.70
2022-12-16T18:27:23.308Z,52.60
2022-12-16T18:32:43.675Z,56.40
2022-12-16T18:38:04.037Z,59.20
2022-12-16T18:43:24.534Z,56.50
2022-12-16T18:48:45.433Z,61.00
2022-12-16T18:54:08.376Z,62.10
2022-12-16T18:59:28.672Z,59.20
2022-12-16T19:04:49.187Z,62.30
2022-12-16T19:10:09.297Z,57.30
2022-12-16T19:15:29.874Z,55.40
2022-12-16T19:20:50.563Z,43.20
2022-12-16T19:31:36.313Z,49.50
2022-12-16T19:36:56.738Z,63.00
2022-12-16T19:42:18.305Z,58.90
2022-12-16T19:47:38.707Z,62.80
2022-12-16T19:52:59.292Z,59.50
2022-12-16T19:58:19.784Z,56.30
2022-12-16T20:03:40.369Z,60.70
2022-12-16T20:09:05.220Z,57.50
2022-12-16T20:14:26.774Z,55.10
2022-12-16T20:19:47.313Z,62.90
2022-12-16T20:25:07.971Z,57.10
2022-12-16T20:30:29.628Z,58.60
2022-12-16T20:41:17.948Z,59.60
2022-12-16T20:46:38.548Z,55.40
2022-12-16T20:51:59.045Z,59.70
2022-12-16T20:57:19.659Z,51.10
2022-12-16T21:02:40.338Z,69.30
2022-12-16T21:08:01.517Z,62.20
2022-12-16T21:13:33.718Z,57.30
2022-12-16T21:18:54.556Z,59.60
2022-12-16T21:24:17.018Z,64.60
2022-12-16T21:29:37.772Z,62.40
2022-12-16T21:34:58.158Z,58.40
2022-12-16T21:40:18.848Z,64.20
2022-12-16T21:45:39.160Z,58.30
2022-12-16T21:50:59.650Z,53.80
2022-12-16T21:56:20.035Z,57.80
2022-12-16T22:01:40.675Z,58.70
2022-12-16T22:07:01.317Z,41.90
2022-12-16T22:12:28.332Z,48.80
2022-12-16T22:23:30.347Z,50.20
2022-12-16T22:28:50.921Z,53.20
2022-12-16T22:34:12.627Z,53.80
2022-12-16T22:39:33.197Z,54.20
2022-12-16T22:44:53.885Z,38.00
2022-12-16T22:50:16.960Z,52.90
2022-12-16T22:55:37.569Z,54.00
2022-12-16T23:00:58.131Z,49.10
2022-12-16T23:06:18.728Z,52.90
2022-12-16T23:11:50.799Z,50.40
2022-12-16T23:17:12.736Z,49.00
2022-12-16T23:22:33.575Z,38.70
2022-12-16T23:27:54.081Z,45.80
2022-12-16T23:36:44.684Z,43.70
2022-12-16T23:42:05.201Z,49.80
2022-12-16T23:47:25.410Z,47.30
2022-12-16T23:52:45.904Z,44.80
2022-12-16T23:58:06.228Z,46.00
